createdAt,value
2018-12-25T00:00:44.749Z,102755.89
2018-12-25T00:03:48.690Z,102756.44
2018-12-25T00:06:52.840Z,102758.63
2018-12-25T00:09:56.696Z,102759.19
2018-12-25T00:13:00.571Z,102758.77
2018-12-25T00:16:04.892Z,102758.38
2018-12-25T00:19:08.744Z,102760.19
2018-12-25T00:22:13.406Z,102749.05
2018-12-25T00:25:17.246Z,102749.69
2018-12-25T00:28:21.126Z,102745.67
2018-12-25T00:31:25.421Z,102741.38
2018-12-25T00:34:29.255Z,102737.30
2018-12-25T00:37:33.111Z,102746.27
2018-12-25T00:40:37.536Z,102757.61
2018-12-25T00:43:43.246Z,102750.34
2018-12-25T00:46:47.436Z,102747.85
2018-12-25T00:49:51.273Z,102752.55
2018-12-25T00:52:58.428Z,102759.64
2018-12-25T00:56:02.282Z,102742.88
2018-12-25T00:59:06.117Z,102740.53
2018-12-25T01:02:10.597Z,102734.29
2018-12-25T01:05:14.432Z,102718.66
2018-12-25T01:08:18.280Z,102716.31
2018-12-25T01:11:22.488Z,102719.46
2018-12-25T01:14:26.414Z,102728.34
2018-12-25T01:17:30.253Z,102724.98
2018-12-25T01:20:34.617Z,102719.95
2018-12-25T01:23:38.439Z,102722.59
2018-12-25T01:26:42.356Z,102716.42
2018-12-25T01:29:46.690Z,102725.72
2018-12-25T01:32:53.622Z,102714.70
2018-12-25T01:35:57.575Z,102708.23
2018-12-25T01:39:01.414Z,102714.56
2018-12-25T01:42:05.406Z,102711.89
2018-12-25T01:45:09.264Z,102719.66
2018-12-25T01:48:13.252Z,102717.86
2018-12-25T01:51:17.091Z,102714.41
2018-12-25T01:54:20.939Z,102711.77
2018-12-25T01:57:24.786Z,102714.53
2018-12-25T02:00:28.744Z,102712.31
2018-12-25T02:03:32.652Z,102710.16
2018-12-25T02:06:36.557Z,102710.58
2018-12-25T02:09:40.466Z,102704.91
2018-12-25T02:12:46.609Z,102715.44
2018-12-25T02:15:50.450Z,102715.38
2018-12-25T02:18:54.287Z,102704.39
2018-12-25T02:21:58.130Z,102698.16
2018-12-25T02:25:05.105Z,102693.47
2018-12-25T02:28:09.036Z,102692.55
2018-12-25T02:31:12.863Z,102694.34
2018-12-25T02:34:16.704Z,102694.49
2018-12-25T02:37:20.763Z,102692.39
2018-12-25T02:40:24.604Z,102692.02
2018-12-25T02:43:28.718Z,102689.84
2018-12-25T02:46:33.315Z,102694.22
2018-12-25T02:49:37.170Z,102688.13
2018-12-25T02:52:43.424Z,102683.41
2018-12-25T02:55:47.254Z,102666.61
2018-12-25T02:58:51.103Z,102669.39
2018-12-25T03:01:55.006Z,102659.64
2018-12-25T03:04:58.861Z,102666.35
2018-12-25T03:08:02.915Z,102658.43
2018-12-25T03:11:06.878Z,102651.02
2018-12-25T03:14:10.830Z,102651.98
2018-12-25T03:17:14.684Z,102655.92
2018-12-25T03:20:21.839Z,102666.20
2018-12-25T03:23:25.677Z,102660.05
2018-12-25T03:26:29.513Z,102659.63
2018-12-25T03:29:33.455Z,102647.73
2018-12-25T03:32:37.274Z,102645.60
2018-12-25T03:35:41.114Z,102644.67
2018-12-25T03:38:44.970Z,102637.17
2018-12-25T03:41:49.228Z,102647.72
2018-12-25T03:44:53.077Z,102642.43
2018-12-25T03:47:56.909Z,102639.70
2018-12-25T03:51:00.887Z,102634.38
2018-12-25T03:54:04.801Z,102620.27
2018-12-25T03:57:09.160Z,102627.77
2018-12-25T04:00:13.100Z,102631.31
2018-12-25T04:03:16.955Z,102624.23
2018-12-25T04:06:24.460Z,102617.72
2018-12-25T04:09:29.101Z,102625.95
2018-12-25T04:12:32.941Z,102618.53
2018-12-25T04:15:36.799Z,102618.00
2018-12-25T04:18:40.627Z,102610.48
2018-12-25T04:21:44.543Z,102602.08
2018-12-25T04:24:48.404Z,102605.59
2018-12-25T04:27:52.333Z,102606.59
2018-12-25T04:30:56.172Z,102608.17
2018-12-25T04:34:00.157Z,102611.27
2018-12-25T04:37:03.974Z,102616.97
2018-12-25T04:40:07.819Z,102612.62
2018-12-25T04:43:11.670Z,102611.34
2018-12-25T04:46:15.513Z,102610.42
2018-12-25T04:49:19.460Z,102617.92
2018-12-25T04:52:23.299Z,102622.25
2018-12-25T04:55:31.390Z,102628.33
2018-12-25T04:58:38.626Z,102613.30
2018-12-25T05:01:42.560Z,102610.34
2018-12-25T05:04:46.411Z,102611.69
2018-12-25T05:07:50.243Z,102611.11
2018-12-25T05:10:54.163Z,102615.45
2018-12-25T05:13:58.000Z,102615.02
2018-12-25T05:17:01.837Z,102624.23
2018-12-25T05:20:06.095Z,102608.70
2018-12-25T05:23:09.935Z,102605.19
2018-12-25T05:26:13.897Z,102617.56
2018-12-25T05:29:17.753Z,102612.81
2018-12-25T05:32:21.648Z,102603.24
2018-12-25T05:35:25.485Z,102599.28
2018-12-25T05:38:29.385Z,102619.53
2018-12-25T05:41:36.654Z,102613.02
2018-12-25T05:44:40.482Z,102626.41
2018-12-25T05:47:44.396Z,102633.80
2018-12-25T05:50:51.616Z,102619.95
2018-12-25T05:53:55.466Z,102619.63
2018-12-25T05:56:59.419Z,102612.91
2018-12-25T06:00:03.328Z,102607.13
2018-12-25T06:03:07.271Z,102616.37
2018-12-25T06:06:11.200Z,102611.98
2018-12-25T06:09:15.028Z,102593.41
2018-12-25T06:12:18.878Z,102612.57
2018-12-25T06:15:22.761Z,102606.06
2018-12-25T06:18:26.684Z,102609.14
2018-12-25T06:21:30.597Z,102626.92
2018-12-25T06:24:34.521Z,102614.06
2018-12-25T06:27:38.419Z,102611.42
2018-12-25T06:30:42.297Z,102610.78
2018-12-25T06:33:46.140Z,102612.16
2018-12-25T06:36:50.288Z,102614.68
2018-12-25T06:39:54.114Z,102607.55
2018-12-25T06:42:57.962Z,102614.66
2018-12-25T06:46:01.912Z,102607.64
2018-12-25T06:49:05.852Z,102608.42
2018-12-25T06:52:09.710Z,102593.03
2018-12-25T06:55:13.615Z,102598.12
2018-12-25T06:58:17.885Z,102598.17
2018-12-25T07:01:24.485Z,102610.44
2018-12-25T07:04:29.101Z,102589.19
2018-12-25T07:07:32.955Z,102594.44
2018-12-25T07:10:36.900Z,102595.78
2018-12-25T07:13:40.754Z,102586.83
2018-12-25T07:16:44.588Z,102591.38
2018-12-25T07:19:48.853Z,102597.36
2018-12-25T07:22:52.707Z,102594.72
2018-12-25T07:25:56.629Z,102591.58
2018-12-25T07:29:00.471Z,102595.03
2018-12-25T07:32:04.404Z,102591.58
2018-12-25T07:35:08.248Z,102599.58
2018-12-25T07:38:12.184Z,102599.83
2018-12-25T07:41:16.016Z,102600.67
2018-12-25T07:44:19.851Z,102601.04
2018-12-25T07:47:23.733Z,102607.49
2018-12-25T07:50:27.589Z,102604.38
2018-12-25T07:53:31.505Z,102613.63
2018-12-25T07:56:35.735Z,102619.45
2018-12-25T07:59:39.722Z,102617.41
2018-12-25T08:02:45.431Z,102616.78
2018-12-25T08:05:49.300Z,102619.52
2018-12-25T08:08:53.190Z,102608.56
2018-12-25T08:11:57.114Z,102602.55
2018-12-25T08:15:01.169Z,102600.09
2018-12-25T08:18:07.497Z,102594.34
2018-12-25T08:21:11.342Z,102592.68
2018-12-25T08:24:15.212Z,102596.30
2018-12-25T08:27:19.217Z,102595.05
2018-12-25T08:30:23.529Z,102594.18
2018-12-25T08:33:27.370Z,102603.11
2018-12-25T08:36:31.227Z,102607.15
2018-12-25T08:39:36.483Z,102600.57
2018-12-25T08:42:40.393Z,102604.58
2018-12-25T08:45:44.329Z,102584.38
2018-12-25T08:48:48.229Z,102580.77
2018-12-25T08:51:52.250Z,102586.95
2018-12-25T08:54:56.097Z,102588.11
2018-12-25T08:58:00.019Z,102591.70
2018-12-25T09:01:04.089Z,102595.19
2018-12-25T09:04:08.036Z,102596.03
2018-12-25T09:07:11.897Z,102594.88
2018-12-25T09:10:18.617Z,102588.94
2018-12-25T09:13:22.555Z,102594.42
2018-12-25T09:16:26.389Z,102601.17
2018-12-25T09:19:30.245Z,102600.65
2018-12-25T09:22:34.099Z,102587.00
2018-12-25T09:25:38.059Z,102595.37
2018-12-25T09:28:41.979Z,102588.84
2018-12-25T09:31:45.876Z,102597.69
2018-12-25T09:34:50.027Z,102597.33
2018-12-25T09:37:54.338Z,102599.27
2018-12-25T09:40:58.200Z,102594.03
2018-12-25T09:44:02.056Z,102598.34
2018-12-25T09:47:05.949Z,102593.94
2018-12-25T09:50:09.813Z,102593.16
2018-12-25T09:53:14.912Z,102598.23
2018-12-25T09:56:19.068Z,102606.29
2018-12-25T09:59:22.954Z,102621.59
2018-12-25T10:02:27.010Z,102610.56
2018-12-25T10:05:30.947Z,102616.73
2018-12-25T10:08:34.856Z,102609.72
2018-12-25T10:11:44.407Z,102610.64
2018-12-25T10:14:44.308Z,102623.69
2018-12-25T10:17:48.177Z,102622.52
2018-12-25T10:20:52.127Z,102618.50
2018-12-25T10:23:56.007Z,102610.63
2018-12-25T10:26:59.876Z,102609.31
2018-12-25T10:30:03.917Z,102604.01
2018-12-25T10:33:07.857Z,102602.23
2018-12-25T10:36:11.714Z,102592.17
2018-12-25T10:39:15.569Z,102581.59
2018-12-25T10:42:19.428Z,102583.06
2018-12-25T10:45:23.282Z,102583.47
2018-12-25T10:48:27.206Z,102578.95
2018-12-25T10:51:31.149Z,102573.09
2018-12-25T10:54:35.058Z,102565.80
2018-12-25T10:57:39.212Z,102558.81
2018-12-25T11:00:47.369Z,102548.42
2018-12-25T11:03:51.203Z,102559.69
2018-12-25T11:06:57.604Z,102557.89
2018-12-25T11:10:01.468Z,102556.97
2018-12-25T11:13:05.374Z,102557.75
2018-12-25T11:16:09.232Z,102557.80
2018-12-25T11:19:13.064Z,102546.77
2018-12-25T11:22:19.952Z,102566.21
2018-12-25T11:25:22.637Z,102552.67
2018-12-25T11:28:26.528Z,102558.45
2018-12-25T11:31:30.465Z,102542.19
2018-12-25T11:34:34.363Z,102548.49
2018-12-25T11:37:38.217Z,102543.59
2018-12-25T11:40:42.152Z,102532.63
2018-12-25T11:43:46.103Z,102533.06
2018-12-25T11:46:49.972Z,102533.88
2018-12-25T11:49:54.071Z,102534.57
2018-12-25T11:52:58.012Z,102537.30
2018-12-25T11:56:02.006Z,102528.66
2018-12-25T11:59:05.901Z,102538.44
2018-12-25T12:02:16.842Z,102536.76
2018-12-25T12:05:15.483Z,102549.41
2018-12-25T12:08:23.187Z,102557.77
2018-12-25T12:11:27.029Z,102560.81
2018-12-25T12:14:30.884Z,102563.14
2018-12-25T12:17:34.819Z,102566.66
2018-12-25T12:20:40.019Z,102570.55
2018-12-25T12:23:45.032Z,102570.50
2018-12-25T12:26:48.795Z,102578.02
2018-12-25T12:29:52.626Z,102571.41
2018-12-25T12:32:56.472Z,102573.62
2018-12-25T12:36:02.507Z,102575.02
2018-12-25T12:39:07.575Z,102570.16
2018-12-25T12:42:11.511Z,102576.34
2018-12-25T12:45:15.344Z,102571.58
2018-12-25T12:48:19.205Z,102581.64
2018-12-25T12:51:23.075Z,102582.91
2018-12-25T12:54:26.921Z,102577.62
2018-12-25T12:57:31.154Z,102572.28
2018-12-25T13:00:36.685Z,102573.14
2018-12-25T13:03:40.560Z,102566.07
2018-12-25T13:06:44.433Z,102584.53
2018-12-25T13:09:48.365Z,102585.36
2018-12-25T13:12:52.214Z,102593.44
2018-12-25T13:15:56.161Z,102584.18
2018-12-25T13:19:00.070Z,102581.88
2018-12-25T13:22:06.237Z,102582.13
2018-12-25T13:25:10.179Z,102586.45
2018-12-25T13:28:14.099Z,102591.66
2018-12-25T13:31:18.026Z,102587.25
2018-12-25T13:34:21.900Z,102582.30
2018-12-25T13:37:28.217Z,102588.74
2018-12-25T13:40:32.152Z,102587.98
2018-12-25T13:43:35.986Z,102580.42
2018-12-25T13:46:39.854Z,102571.11
2018-12-25T13:49:43.702Z,102574.73
2018-12-25T13:52:47.563Z,102568.47
2018-12-25T13:55:51.418Z,102578.60
2018-12-25T13:58:55.367Z,102575.06
2018-12-25T14:01:59.296Z,102570.56
2018-12-25T14:05:03.225Z,102558.20
2018-12-25T14:08:07.050Z,102551.97
2018-12-25T14:11:10.904Z,102553.71
2018-12-25T14:14:14.748Z,102545.47
2018-12-25T14:17:18.633Z,102544.84
2018-12-25T14:20:22.585Z,102529.80
2018-12-25T14:23:26.506Z,102528.00
2018-12-25T14:26:30.464Z,102534.70
2018-12-25T14:29:34.376Z,102535.39
2018-12-25T14:32:38.218Z,102539.69
2018-12-25T14:35:42.151Z,102540.61
2018-12-25T14:38:46.066Z,102554.98
2018-12-25T14:41:49.930Z,102564.66
2018-12-25T14:44:53.864Z,102560.73
2018-12-25T14:47:57.711Z,102551.06
2018-12-25T14:51:01.640Z,102552.77
2018-12-25T14:54:05.577Z,102552.92
2018-12-25T14:57:09.669Z,102551.08
2018-12-25T15:00:13.594Z,102558.09
2018-12-25T15:03:20.494Z,102559.30
2018-12-25T15:06:24.420Z,102549.86
2018-12-25T15:09:28.359Z,102547.80
2018-12-25T15:12:32.200Z,102549.91
2018-12-25T15:15:36.569Z,102528.84
2018-12-25T15:18:40.477Z,102535.84
2018-12-25T15:21:44.283Z,102537.09
2018-12-25T15:24:48.150Z,102543.16
2018-12-25T15:27:52.062Z,102533.70
2018-12-25T15:30:55.915Z,102536.21
2018-12-25T15:33:59.807Z,102539.40
2018-12-25T15:37:03.816Z,102546.29
2018-12-25T15:40:10.903Z,102546.75
2018-12-25T15:43:14.783Z,102545.34
2018-12-25T15:46:18.730Z,102547.50
2018-12-25T15:49:22.654Z,102545.61
2018-12-25T15:52:29.049Z,102544.16
2018-12-25T15:55:32.886Z,102538.87
2018-12-25T15:58:36.807Z,102539.14
2018-12-25T16:01:40.943Z,102536.50
2018-12-25T16:04:44.908Z,102543.13
2018-12-25T16:07:48.771Z,102543.10
2018-12-25T16:10:52.595Z,102538.48
2018-12-25T16:13:58.602Z,102557.88
2018-12-25T16:17:02.524Z,102556.45
2018-12-25T16:20:09.980Z,102550.62
2018-12-25T16:23:13.843Z,102551.44
2018-12-25T16:26:22.523Z,102552.34
2018-12-25T16:29:26.531Z,102558.06
2018-12-25T16:32:30.952Z,102550.70
2018-12-25T16:35:34.803Z,102555.35
2018-12-25T16:38:38.741Z,102552.34
2018-12-25T16:41:42.593Z,102551.47
2018-12-25T16:44:46.722Z,102546.66
2018-12-25T16:47:50.654Z,102549.59
2018-12-25T16:50:54.596Z,102547.35
2018-12-25T16:53:58.515Z,102561.05
2018-12-25T16:57:02.369Z,102566.36
2018-12-25T17:00:07.379Z,102557.09
2018-12-25T17:03:12.891Z,102572.14
2018-12-25T17:06:16.758Z,102571.34
2018-12-25T17:09:22.834Z,102571.83
2018-12-25T17:12:26.718Z,102571.83
2018-12-25T17:15:30.574Z,102568.84
2018-12-25T17:18:34.494Z,102578.95
2018-12-25T17:21:38.346Z,102577.34
2018-12-25T17:24:42.195Z,102570.74
2018-12-25T17:27:46.087Z,102576.48
2018-12-25T17:30:49.957Z,102570.81
2018-12-25T17:33:53.833Z,102564.96
2018-12-25T17:36:57.670Z,102563.50
2018-12-25T17:40:01.528Z,102557.39
2018-12-25T17:43:06.463Z,102549.09
2018-12-25T17:46:10.301Z,102551.76
2018-12-25T17:49:14.524Z,102545.21
2018-12-25T17:52:18.445Z,102544.73
2018-12-25T17:55:22.294Z,102539.95
2018-12-25T17:58:26.222Z,102543.94
2018-12-25T18:01:30.154Z,102547.03
2018-12-25T18:04:34.266Z,102552.83
2018-12-25T18:07:38.105Z,102550.25
2018-12-25T18:10:42.023Z,102547.17
2018-12-25T18:13:45.892Z,102555.08
2018-12-25T18:16:49.768Z,102552.67
2018-12-25T18:19:53.668Z,102557.86
2018-12-25T18:22:57.524Z,102556.94
2018-12-25T18:26:01.386Z,102564.44
2018-12-25T18:29:06.519Z,102564.04
2018-12-25T18:32:10.402Z,102567.62
2018-12-25T18:35:14.264Z,102570.66
2018-12-25T18:38:18.136Z,102580.41
2018-12-25T18:41:21.974Z,102570.28
2018-12-25T18:44:25.815Z,102583.05
2018-12-25T18:47:29.652Z,102566.26
2018-12-25T18:50:33.691Z,102559.77
2018-12-25T18:53:37.691Z,102558.40
2018-12-25T18:56:41.558Z,102551.39
2018-12-25T18:59:47.595Z,102566.82
2018-12-25T19:02:51.458Z,102556.25
2018-12-25T19:05:55.325Z,102543.45
2018-12-25T19:08:59.268Z,102545.89
2018-12-25T19:12:03.250Z,102544.34
2018-12-25T19:15:23.392Z,102535.52
2018-12-25T19:18:27.381Z,102533.77
2018-12-25T19:21:32.933Z,102531.25
2018-12-25T19:24:36.801Z,102540.07
2018-12-25T19:27:40.653Z,102532.64
2018-12-25T19:30:44.519Z,102531.78
2018-12-25T19:33:48.374Z,102545.05
2018-12-25T19:36:52.399Z,102539.27
2018-12-25T19:39:58.665Z,102539.28
2018-12-25T19:43:02.536Z,102540.07
2018-12-25T19:46:06.552Z,102543.52
2018-12-25T19:49:10.491Z,102528.98
2018-12-25T19:52:14.402Z,102530.82
2018-12-25T19:55:18.406Z,102533.09
2018-12-25T19:58:22.322Z,102528.18
2018-12-25T20:01:26.188Z,102532.84
2018-12-25T20:04:47.033Z,102535.70
2018-12-25T20:08:31.098Z,102523.83
2018-12-25T20:12:14.718Z,102541.52
2018-12-25T20:16:08.954Z,102533.96
2018-12-25T20:19:54.725Z,102529.14
2018-12-25T20:23:27.176Z,102536.55
2018-12-25T20:27:14.083Z,102526.45
2018-12-25T20:31:23.761Z,102533.08
2018-12-25T20:34:51.234Z,102521.17
2018-12-25T20:38:25.890Z,102515.41
2018-12-25T20:42:10.819Z,102508.00
2018-12-25T20:46:20.277Z,102523.08
2018-12-25T20:50:10.495Z,102508.91
2018-12-25T20:53:49.694Z,102512.10
2018-12-25T20:57:17.684Z,102511.73
2018-12-25T21:00:46.367Z,102514.27
2018-12-25T21:04:42.526Z,102510.73
2018-12-25T21:08:38.011Z,102501.86
2018-12-25T21:12:08.573Z,102491.30
2018-12-25T21:16:04.945Z,102492.19
2018-12-25T21:19:49.897Z,102492.39
2018-12-25T21:23:29.673Z,102488.86
2018-12-25T21:27:09.484Z,102490.70
2018-12-25T21:30:13.479Z,102491.08
2018-12-25T21:33:17.584Z,102481.34
2018-12-25T21:36:21.606Z,102477.28
2018-12-25T21:39:25.705Z,102474.23
2018-12-25T21:42:30.101Z,102484.40
2018-12-25T21:45:34.018Z,102489.30
2018-12-25T21:48:38.423Z,102484.06
2018-12-25T21:51:42.677Z,102486.14
2018-12-25T21:54:49.294Z,102487.95
2018-12-25T21:57:54.219Z,102491.94
2018-12-25T22:00:58.223Z,102484.98
2018-12-25T22:04:02.212Z,102485.90
2018-12-25T22:07:06.129Z,102473.13
2018-12-25T22:10:10.077Z,102474.50
2018-12-25T22:13:13.936Z,102479.83
2018-12-25T22:16:20.372Z,102467.91
2018-12-25T22:19:24.328Z,102474.73
2018-12-25T22:22:28.197Z,102471.56
2018-12-25T22:25:32.203Z,102473.78
2018-12-25T22:28:36.209Z,102467.20
2018-12-25T22:31:40.159Z,102458.36
2018-12-25T22:34:44.085Z,102471.19
2018-12-25T22:37:48.139Z,102474.70
2018-12-25T22:40:52.075Z,102474.29
2018-12-25T22:43:55.937Z,102490.19
2018-12-25T22:46:59.806Z,102493.23
2018-12-25T22:50:04.307Z,102480.12
2018-12-25T22:53:08.810Z,102478.71
2018-12-25T22:56:12.732Z,102470.34
2018-12-25T22:59:17.691Z,102469.94
2018-12-25T23:02:24.124Z,102478.70
2018-12-25T23:05:28.107Z,102466.91
2018-12-25T23:08:33.769Z,102468.63
2018-12-25T23:11:37.627Z,102463.39
2018-12-25T23:14:41.481Z,102455.00
2018-12-25T23:17:45.996Z,102469.59
2018-12-25T23:20:49.960Z,102474.10
2018-12-25T23:23:53.790Z,102449.38
2018-12-25T23:26:57.709Z,102439.25
2018-12-25T23:30:01.604Z,102430.16
2018-12-25T23:33:05.514Z,102410.73
2018-12-25T23:36:17.058Z,102395.27
2018-12-25T23:39:20.892Z,102393.88
2018-12-25T23:42:24.760Z,102385.03
2018-12-25T23:45:28.613Z,102407.02
2018-12-25T23:48:32.457Z,102383.61
2018-12-25T23:51:36.312Z,102387.59
2018-12-25T23:54:40.143Z,102388.50
2018-12-25T23:57:44.586Z,102374.78
